Time;durP1;ratioP1;P1;durP2;ratioP2;P2;SDS_P1;SDS_P2;PMS_P1;PMS_P2;Temp;Humidity;BMP_temperature;BMP_pressure;BME280_temperature;BME280_humidity;BME280_pressure;Samples;Min_cycle;Max_cycle;Signal;HPM_P1;HPM_P2
2023/05/08 00:02:05;;;;;;;22.27;17.38;;;13.50;99.90;;;-144.05;74.73;56893.44;5000833;28;20085;-76
2023/05/08 00:04:30;;;;;;;23.35;18.63;;;13.50;99.90;;;-144.05;75.15;56895.56;5001715;28;20053;-77
2023/05/08 00:06:56;;;;;;;23.52;17.40;;;13.40;99.90;;;-144.05;74.81;56908.31;4992004;28;20038;-79
2023/05/08 00:09:22;;;;;;;24.17;18.33;;;13.40;99.90;;;-144.05;74.96;56895.56;4992789;28;20034;-77
2023/05/08 00:11:48;;;;;;;21.98;18.63;;;13.30;99.90;;;-144.05;75.06;56910.44;4996446;28;20060;-79
2023/05/08 00:14:14;;;;;;;23.42;19.35;;;13.30;99.90;;;-144.05;74.91;56921.06;4978652;28;20109;-80
2023/05/08 00:16:40;;;;;;;23.45;18.00;;;13.30;99.90;;;-144.05;75.00;56912.56;4978566;28;20093;-77
2023/05/08 00:19:07;;;;;;;23.05;18.23;;;13.30;99.90;;;-144.05;75.00;56918.94;4996533;28;20034;-79
2023/05/08 00:21:33;;;;;;;20.42;17.73;;;13.20;99.90;;;-144.05;75.00;56876.44;4980064;28;20031;-79
2023/05/08 00:23:59;;;;;;;24.83;19.00;;;13.20;99.90;;;-144.05;75.18;56940.16;4994736;28;20469;-79
2023/05/08 00:26:24;;;;;;;22.40;17.85;;;13.20;99.90;;;-144.05;75.14;56891.31;4995383;28;20061;-77
2023/05/08 00:28:50;;;;;;;20.40;17.20;;;13.20;99.90;;;-144.05;75.26;56912.56;4996198;28;20038;-80
2023/05/08 00:31:17;;;;;;;23.98;18.90;;;13.20;99.90;;;-144.05;75.59;56925.28;4995729;28;20030;-80
2023/05/08 00:33:42;;;;;;;22.67;18.13;;;13.20;99.90;;;-144.05;75.35;56910.44;4982291;28;20041;-77
2023/05/08 00:36:08;;;;;;;24.50;18.10;;;13.10;99.90;;;-144.05;75.87;56904.06;4999362;28;20462;-79
2023/05/08 00:38:36;;;;;;;23.42;17.80;;;13.10;99.90;;;-144.05;75.72;56918.94;4998889;28;20026;-79
2023/05/08 00:41:02;;;;;;;22.52;18.42;;;13.10;99.90;;;-144.05;75.48;56921.06;5000747;28;20105;-79
2023/05/08 00:43:28;;;;;;;20.50;17.58;;;13.00;99.90;;;-144.05;75.56;56914.69;5000354;28;20518;-79
2023/05/08 00:45:59;;;;;;;21.70;17.95;;;13.00;99.90;;;-144.05;75.81;56901.94;4999523;28;20402;-79
2023/05/08 00:48:31;;;;;;;21.55;18.08;;;13.00;99.90;;;-144.05;75.74;56914.69;4999795;28;20033;-80
2023/05/08 00:50:59;;;;;;;19.75;17.35;;;13.00;99.90;;;-144.05;75.82;56908.31;4982267;28;20126;-80
2023/05/08 00:53:29;;;;;;;22.33;17.95;;;12.90;99.90;;;-144.05;75.72;56925.28;4999146;28;20077;-79
2023/05/08 00:55:56;;;;;;;21.17;18.33;;;12.90;99.90;;;-144.05;75.71;56889.19;4999668;28;20034;-78
2023/05/08 00:58:26;;;;;;;20.75;17.67;;;12.90;99.90;;;-144.05;75.83;56901.94;4997881;28;20037;-78
2023/05/08 01:00:55;;;;;;;20.90;17.75;;;12.90;99.90;;;-144.05;75.75;56923.19;4999600;28;20113;-79
2023/05/08 01:03:23;;;;;;;23.15;17.40;;;12.90;99.90;;;-144.05;75.82;56906.19;4981366;28;20490;-79
2023/05/08 01:05:49;;;;;;;21.48;17.20;;;12.90;99.90;;;-144.05;75.82;56908.31;4998702;28;20042;-78
2023/05/08 01:08:15;;;;;;;20.38;17.80;;;12.80;99.90;;;-144.05;76.10;56899.81;4979984;28;20383;-77
2023/05/08 01:11:21;;;;;;;23.83;18.45;;;12.90;99.90;;;-144.05;75.76;56908.31;4979729;28;20042;-78
2023/05/08 01:13:51;;;;;;;21.13;16.73;;;12.90;99.90;;;-144.05;75.31;56910.44;4998442;28;20090;-78
2023/05/08 01:16:35;;;;;;;21.75;17.00;;;12.90;99.90;;;-144.05;75.07;56906.19;4998687;28;20331;-79
2023/05/08 01:19:50;;;;;;;23.95;17.30;;;12.90;99.90;;;-144.05;75.23;56929.53;4981393;28;20393;-79
2023/05/08 01:22:45;;;;;;;19.52;16.45;;;12.90;99.90;;;-144.05;74.91;56916.81;4980632;28;20053;-78
2023/05/08 01:26:06;;;;;;;20.75;17.77;;;12.80;99.90;;;-144.05;74.54;56891.31;4998174;28;20040;-79
2023/05/08 01:29:15;;;;;;;17.98;16.02;;;12.80;99.90;;;-144.05;74.48;56912.56;4998243;28;20029;-79
2023/05/08 01:32:38;;;;;;;19.35;17.05;;;12.80;99.90;;;-144.05;74.43;56904.06;4981155;28;20354;-80
2023/05/08 01:35:16;;;;;;;21.35;17.00;;;12.80;99.90;;;-144.05;74.26;56904.06;4997464;28;20046;-78
2023/05/08 01:38:04;;;;;;;20.98;17.52;;;12.80;99.90;;;-144.05;74.79;56914.69;4982150;28;20026;-78
2023/05/08 01:41:01;;;;;;;24.50;18.23;;;12.70;99.90;;;-144.05;74.83;56901.94;4999038;28;20030;-79
2023/05/08 01:43:38;;;;;;;;;;;12.70;99.90;;;-144.05;75.18;56916.81;4981623;28;20026;-78
2023/05/08 01:46:15;;;;;;;18.15;16.25;;;12.70;99.90;;;-144.05;75.20;56891.31;4999316;28;19917;-79
2023/05/08 01:49:16;;;;;;;20.70;16.85;;;12.70;99.90;;;-144.05;74.64;56918.94;4998549;28;20026;-77
2023/05/08 01:51:56;;;;;;;21.63;17.58;;;12.70;99.90;;;-144.05;75.01;56914.69;4994982;28;20039;-78
2023/05/08 01:54:34;;;;;;;23.33;18.10;;;12.70;99.90;;;-144.05;75.20;56923.19;4981370;28;20035;-79
2023/05/08 01:57:03;;;;;;;20.90;17.52;;;12.70;99.90;;;-144.05;75.38;56925.28;4997417;28;20402;-78
2023/05/08 01:59:34;;;;;;;21.17;17.70;;;12.70;99.90;;;-144.05;75.05;56912.56;4980589;28;20431;-78
2023/05/08 02:02:02;;;;;;;19.77;15.90;;;12.70;99.90;;;-144.05;74.99;56923.19;4997889;28;20105;-79
2023/05/08 02:04:32;;;;;;;22.80;16.95;;;12.60;99.90;;;-144.05;75.08;56882.81;4997891;28;20120;-77
2023/05/08 02:07:00;;;;;;;20.67;18.08;;;12.60;99.90;;;-144.05;75.20;56921.06;4997883;28;20114;-77
2023/05/08 02:09:30;;;;;;;22.38;17.05;;;12.70;99.90;;;-144.05;75.17;56901.94;4998036;28;20030;-80
2023/05/08 02:11:59;;;;;;;21.08;17.02;;;12.70;99.90;;;-144.05;75.17;56899.81;4997878;28;20034;-79
2023/05/08 02:14:29;;;;;;;19.02;16.27;;;12.60;99.90;;;-144.05;75.15;56929.53;4997404;28;20038;-77
2023/05/08 02:17:02;;;;;;;20.08;16.45;;;12.60;99.90;;;-144.05;75.43;56908.31;4980583;28;20034;-80
2023/05/08 02:19:32;;;;;;;19.73;16.50;;;12.60;99.90;;;-144.05;75.52;56918.94;4999010;28;20363;-80
2023/05/08 02:22:00;;;;;;;20.90;17.45;;;12.60;99.90;;;-144.05;75.62;56908.31;4980327;28;20026;-78
2023/05/08 02:24:26;;;;;;;19.73;15.15;;;12.60;99.90;;;-144.05;75.82;56925.28;4979078;28;20033;-77
2023/05/08 02:26:56;;;;;;;17.08;15.10;;;12.60;99.90;;;-144.05;75.97;56895.56;4979802;28;20504;-78
2023/05/08 02:29:24;;;;;;;19.10;14.65;;;12.60;99.90;;;-144.05;75.98;56927.41;4999108;28;20033;-78
2023/05/08 02:31:53;;;;;;;16.83;14.95;;;12.60;99.90;;;-144.05;76.21;56908.31;4979899;28;20070;-79
2023/05/08 02:34:23;;;;;;;19.45;16.52;;;12.60;99.90;;;-144.05;76.07;56916.81;4998495;28;20058;-79
2023/05/08 02:36:53;;;;;;;20.98;16.60;;;12.50;99.90;;;-144.05;76.30;56940.16;4998808;28;20502;-79
2023/05/08 02:39:25;;;;;;;18.15;14.80;;;12.50;99.90;;;-144.05;76.36;56921.06;4997763;28;20311;-80
2023/05/08 02:41:51;;;;;;;19.17;16.60;;;12.50;99.90;;;-144.05;76.60;56918.94;4998514;28;20045;-78
2023/05/08 02:44:18;;;;;;;19.02;15.63;;;12.50;99.90;;;-144.05;76.59;56929.53;5010322;28;20034;-77
2023/05/08 02:46:59;;;;;;;19.58;17.05;;;12.50;99.90;;;-144.05;76.86;56910.44;5010391;28;20494;-77
2023/05/08 02:50:16;;;;;;;21.52;17.70;;;12.50;99.90;;;-144.05;76.89;56906.19;5009976;28;20027;-77
2023/05/08 02:52:49;;;;;;;19.88;16.27;;;12.40;99.90;;;-144.05;76.87;56895.56;4997716;28;20030;-77
2023/05/08 02:56:01;;;;;;;18.10;15.60;;;12.40;99.90;;;-144.05;77.14;56912.56;4995590;28;20035;-78
2023/05/08 02:58:51;;;;;;;17.83;15.02;;;12.40;99.90;;;-144.05;77.52;56904.06;4995289;28;20045;-73
2023/05/08 03:01:40;;;;;;;19.65;16.42;;;12.30;99.90;;;-144.05;77.94;56893.44;5017899;28;20091;-75
2023/05/08 03:04:15;;;;;;;17.33;14.77;;;12.30;99.90;;;-144.05;78.12;56891.31;5017697;28;20033;-74
2023/05/08 03:06:47;;;;;;;18.88;15.30;;;12.30;99.90;;;-144.05;78.19;56904.06;5018029;28;20039;-75
2023/05/08 03:09:25;;;;;;;20.58;15.88;;;12.30;99.90;;;-144.05;78.70;56904.06;5017642;28;20037;-74
2023/05/08 03:12:03;;;;;;;19.15;16.90;;;12.30;99.90;;;-144.05;78.95;56918.94;4997104;28;20052;-77
2023/05/08 03:14:41;;;;;;;17.92;16.02;;;12.20;99.90;;;-144.05;79.12;56921.06;4979860;28;20061;-79
2023/05/08 03:17:14;;;;;;;19.05;15.35;;;12.20;99.90;;;-144.05;79.71;56916.81;4979463;28;20499;-77
2023/05/08 03:19:53;;;;;;;18.88;15.82;;;12.20;99.90;;;-144.05;79.85;56916.81;4996829;28;20041;-79
2023/05/08 03:22:23;;;;;;;17.45;15.05;;;12.20;99.90;;;-144.05;80.04;56933.78;4996878;28;20023;-79
2023/05/08 03:24:53;;;;;;;17.20;15.40;;;12.10;99.90;;;-144.05;80.19;56893.44;4997727;28;20023;-79
2023/05/08 03:27:20;;;;;;;20.25;15.95;;;12.10;99.90;;;-144.05;80.30;56887.06;4999062;28;20031;-79
2023/05/08 03:29:49;;;;;;;16.67;14.70;;;12.00;99.90;;;-144.05;80.47;56908.31;4996721;28;20053;-80
2023/05/08 03:32:18;;;;;;;20.42;16.02;;;12.00;99.90;;;-144.05;80.61;56925.28;4995503;28;20034;-79
2023/05/08 03:34:47;;;;;;;21.05;16.88;;;12.00;99.90;;;-144.05;80.79;56916.81;4996727;28;20030;-79
2023/05/08 03:37:13;;;;;;;18.83;16.27;;;12.00;99.90;;;-144.05;80.87;56893.44;4979249;28;20102;-77
2023/05/08 03:39:39;;;;;;;19.02;16.88;;;12.00;99.90;;;-144.05;81.11;56931.66;4997427;28;20437;-78
2023/05/08 03:42:05;;;;;;;20.98;17.23;;;11.90;99.90;;;-144.05;81.24;56904.06;4978362;28;20387;-76
2023/05/08 03:44:32;;;;;;;21.00;17.85;;;11.90;99.90;;;-144.05;81.35;56925.28;4993881;28;20035;-77
2023/05/08 03:47:01;;;;;;;23.50;17.58;;;11.90;99.90;;;-144.05;81.54;56904.06;4995387;28;20030;-78
2023/05/08 03:49:32;;;;;;;21.23;16.35;;;11.90;99.90;;;-144.05;81.64;56910.44;5214857;23;20053;-78
2023/05/08 03:51:59;;;;;;;19.45;17.08;;;11.90;99.90;;;-144.05;81.73;56916.81;5032684;28;20052;-78
2023/05/08 03:54:26;;;;;;;22.25;16.40;;;11.90;99.90;;;-144.05;81.62;56929.53;5032412;28;20018;-77
2023/05/08 03:56:53;;;;;;;25.17;18.88;;;11.80;99.90;;;-144.05;81.87;56882.81;5014187;28;20037;-76
2023/05/08 04:00:08;;;;;;;20.90;17.77;;;11.80;99.90;;;-144.05;82.16;56916.81;5032378;28;20128;-77
2023/05/08 04:02:52;;;;;;;22.75;18.02;;;11.80;99.90;;;-144.05;82.39;56921.06;5032130;28;20503;-77
2023/05/08 04:05:42;;;;;;;19.40;16.80;;;11.80;99.90;;;-144.05;82.28;56929.53;5032138;28;20447;-77
2023/05/08 04:08:33;;;;;;;18.20;15.00;;;11.70;99.90;;;-144.05;82.62;56893.44;5035041;28;20029;-76
2023/05/08 04:11:40;;;;;;;18.95;16.27;;;11.70;99.90;;;-144.05;82.57;56912.56;5018440;28;20107;-77
2023/05/08 04:14:17;;;;;;;21.45;17.50;;;11.60;99.90;;;-144.05;82.76;56918.94;5036318;28;20470;-76
2023/05/08 04:16:52;;;;;;;22.40;17.45;;;11.70;99.90;;;-144.05;82.74;56944.41;5035873;28;20053;-77
2023/05/08 04:19:32;;;;;;;25.10;18.88;;;11.60;99.90;;;-144.05;83.35;56906.19;5036625;28;20025;-78
2023/05/08 04:22:07;;;;;;;22.92;18.50;;;11.70;99.90;;;-144.05;83.36;56916.81;5036489;28;20031;-77
2023/05/08 04:24:42;;;;;;;21.38;17.38;;;11.70;99.90;;;-144.05;83.38;56916.81;5037608;28;20021;-78
2023/05/08 04:27:11;;;;;;;24.38;18.48;;;11.70;99.90;;;-144.05;83.26;56906.19;5019623;28;20034;-78
2023/05/08 04:29:38;;;;;;;24.35;18.33;;;11.80;99.90;;;-144.05;83.55;56921.06;5019084;28;20419;-80
2023/05/08 04:32:09;;;;;;;21.35;16.83;;;11.80;99.90;;;-144.05;83.74;56912.56;5036683;28;20033;-77
2023/05/08 04:34:35;;;;;;;21.67;17.48;;;11.80;99.90;;;-144.05;83.51;56912.56;5018720;28;20029;-77
2023/05/08 04:37:02;;;;;;;23.80;18.17;;;11.80;99.90;;;-144.05;83.53;56906.19;5037063;28;20033;-79
2023/05/08 04:39:28;;;;;;;24.70;18.10;;;11.80;99.90;;;-144.05;83.57;56884.94;5019077;28;20489;-79
2023/05/08 04:41:54;;;;;;;24.63;18.77;;;11.90;99.90;;;-144.05;83.66;56931.66;5036975;28;20108;-79
2023/05/08 04:44:20;;;;;;;22.27;17.52;;;11.90;99.90;;;-144.05;83.88;56921.06;5036646;28;20120;-78
2023/05/08 04:46:46;;;;;;;22.80;17.83;;;11.90;99.90;;;-144.05;83.78;56925.28;5035231;28;20052;-78
2023/05/08 04:49:12;;;;;;;24.42;19.08;;;12.00;99.90;;;-144.05;83.88;56912.56;5035926;28;20500;-78
2023/05/08 04:51:38;;;;;;;20.67;17.25;;;12.00;99.90;;;-144.05;83.91;56891.31;5036210;28;20044;-77
2023/05/08 04:54:04;;;;;;;22.35;18.27;;;12.10;99.90;;;-144.05;83.92;56916.81;5035974;28;20389;-76
2023/05/08 04:56:29;;;;;;;22.92;18.63;;;12.20;99.90;;;-144.05;83.76;56914.69;5044319;28;20116;-77
2023/05/08 04:58:55;;;;;;;20.73;17.85;;;12.30;99.90;;;-144.05;83.67;56901.94;5018702;28;20512;-78
2023/05/08 05:01:21;;;;;;;23.20;18.35;;;12.30;99.90;;;-144.05;83.61;56908.31;5036460;28;20040;-76
2023/05/08 05:03:47;;;;;;;23.13;17.95;;;12.40;99.90;;;-144.05;83.55;56895.56;5018561;28;20147;-77
2023/05/08 05:06:13;;;;;;;22.90;16.83;;;12.50;99.90;;;-144.05;83.29;56895.56;5036231;28;20037;-79
2023/05/08 05:08:38;;;;;;;23.92;19.25;;;12.60;99.90;;;-144.05;83.46;56933.78;5036123;28;20040;-76
2023/05/08 05:11:05;;;;;;;24.35;18.38;;;12.60;99.90;;;-144.05;83.13;56906.19;5035426;28;20059;-78
2023/05/08 05:13:31;;;;;;;21.52;17.75;;;12.70;99.90;;;-144.05;83.07;56901.94;5053766;28;20029;-78
2023/05/08 05:15:59;;;;;;;22.88;18.27;;;12.70;99.90;;;-144.05;82.88;56908.31;5024680;28;20036;-77
2023/05/08 05:18:25;;;;;;;23.52;17.17;;;12.90;99.90;;;-144.05;82.46;56906.19;5018678;28;20041;-78
2023/05/08 05:20:51;;;;;;;22.85;16.98;;;12.90;99.90;;;-144.05;82.16;56895.56;5036676;28;20030;-78
2023/05/08 05:23:17;;;;;;;20.13;16.75;;;12.90;99.90;;;-144.05;82.25;56891.31;5035364;28;20026;-78
2023/05/08 05:25:42;;;;;;;23.38;18.15;;;13.00;99.90;;;-144.05;82.05;56912.56;5034737;28;20052;-78
2023/05/08 05:28:08;;;;;;;18.92;16.20;;;13.10;99.90;;;-144.05;81.82;56906.19;5034002;28;20026;-79
2023/05/08 05:30:34;;;;;;;22.65;17.45;;;13.20;99.90;;;-144.05;81.25;56891.31;5035463;28;20025;-75
2023/05/08 05:33:00;;;;;;;19.48;15.75;;;13.20;99.90;;;-144.05;81.21;56908.31;5034923;28;20159;-77
2023/05/08 05:35:26;;;;;;;22.65;16.98;;;13.30;99.90;;;-144.05;80.94;56912.56;5036087;28;20037;-77
2023/05/08 05:37:51;;;;;;;19.42;16.27;;;13.40;99.90;;;-144.05;80.28;56882.81;5035421;28;20076;-79
2023/05/08 05:40:17;;;;;;;21.23;16.63;;;13.40;99.90;;;-144.05;79.95;56916.81;5017283;28;20101;-77
2023/05/08 05:42:49;;;;;;;29.90;18.95;;;13.50;99.90;;;-144.05;79.05;56916.81;5034536;28;20461;-78
2023/05/08 05:45:15;;;;;;;22.02;17.60;;;13.60;99.90;;;-144.05;77.70;56889.19;5034838;28;20091;-79
2023/05/08 05:47:48;;;;;;;21.40;16.55;;;13.70;99.90;;;-144.05;76.64;56910.44;5035580;28;20029;-78
2023/05/08 05:50:17;;;;;;;25.45;17.08;;;13.80;99.90;;;-144.05;76.20;56910.44;5017464;28;20225;-77
2023/05/08 05:52:43;;;;;;;19.95;16.90;;;13.90;99.90;;;-144.05;75.33;56897.69;5034366;28;20105;-76
2023/05/08 05:55:09;;;;;;;21.92;17.38;;;14.10;99.90;;;-144.05;74.30;56897.69;5035434;28;20117;-76
2023/05/08 05:57:35;;;;;;;19.95;16.13;;;14.20;99.90;;;-144.05;73.97;56925.28;5035437;28;20029;-78
2023/05/08 06:00:02;;;;;;;28.08;17.55;;;14.40;99.90;;;-144.05;73.22;56893.44;5033740;28;20103;-77
2023/05/08 06:02:28;;;;;;;24.45;17.63;;;14.60;99.90;;;-144.05;72.06;56914.69;5034103;28;20419;-78
2023/05/08 06:04:54;;;;;;;20.30;16.30;;;14.70;99.90;;;-144.05;71.73;56912.56;5034210;28;20029;-78
2023/05/08 06:07:20;;;;;;;27.85;18.85;;;14.80;99.90;;;-144.05;70.34;56904.06;5016260;28;20041;-78
2023/05/08 06:09:47;;;;;;;24.25;17.90;;;15.00;99.90;;;-144.05;68.76;56916.81;5033561;28;20025;-78
2023/05/08 06:12:12;;;;;;;20.95;18.15;;;15.10;99.90;;;-144.05;68.74;56914.69;5034349;28;20058;-78
2023/05/08 06:14:38;;;;;;;19.77;15.13;;;15.10;99.90;;;-144.05;68.81;56921.06;5035002;28;20033;-78
2023/05/08 06:17:04;;;;;;;18.92;16.58;;;15.30;99.90;;;-144.05;68.25;56908.31;5041758;28;20029;-78
2023/05/08 06:19:30;;;;;;;18.67;15.60;;;15.30;99.90;;;-144.05;68.45;56916.81;5045448;28;20033;-78
2023/05/08 06:21:56;;;;;;;21.08;16.75;;;15.40;99.90;;;-144.05;68.09;56897.69;5045197;28;20440;-77
2023/05/08 06:24:22;;;;;;;22.48;15.95;;;15.50;99.90;;;-144.05;68.10;56923.19;5044084;28;20017;-78
2023/05/08 06:26:47;;;;;;;22.02;17.13;;;15.50;99.90;;;-144.05;67.26;56918.94;5042391;28;20507;-76
2023/05/08 06:29:13;;;;;;;22.05;16.65;;;15.50;99.90;;;-144.05;67.46;56931.66;5041213;28;20029;-77
2023/05/08 06:31:39;;;;;;;22.42;16.48;;;15.60;99.90;;;-144.05;67.29;56921.06;5034729;28;20033;-77
2023/05/08 06:34:05;;;;;;;20.63;15.70;;;15.50;99.90;;;-144.05;67.66;56908.31;5033314;28;20516;-75
2023/05/08 06:36:31;;;;;;;24.55;15.75;;;15.60;99.90;;;-144.05;68.03;56893.44;5033549;28;20040;-79
2023/05/08 06:38:57;;;;;;;17.90;13.88;;;15.60;99.90;;;-144.05;68.30;56904.06;5033086;28;20030;-78
2023/05/08 06:41:23;;;;;;;15.38;13.75;;;15.60;99.90;;;-144.05;68.46;56916.81;5034025;28;20025;-77
2023/05/08 06:43:48;;;;;;;19.95;15.82;;;15.60;99.90;;;-144.05;68.68;56914.69;5034143;28;20061;-77
2023/05/08 06:46:14;;;;;;;17.20;14.05;;;15.60;99.90;;;-144.05;69.11;56901.94;5032642;28;20447;-77
2023/05/08 06:48:40;;;;;;;17.88;14.05;;;15.50;99.90;;;-144.05;69.72;56931.66;5032640;28;20120;-78
2023/05/08 06:51:06;;;;;;;21.83;16.60;;;15.50;99.90;;;-144.05;70.00;56918.94;5034615;28;20075;-78
2023/05/08 06:53:32;;;;;;;26.30;16.30;;;15.50;99.90;;;-144.05;70.22;56925.28;5033610;28;20056;-76
2023/05/08 06:55:58;;;;;;;17.38;13.48;;;15.40;99.90;;;-144.05;70.65;56906.19;5015062;28;20041;-76
2023/05/08 06:58:24;;;;;;;19.27;14.18;;;15.50;99.90;;;-144.05;71.21;56923.19;5031761;28;20033;-77
2023/05/08 07:00:50;;;;;;;15.43;13.75;;;15.60;99.90;;;-144.05;71.23;56935.91;5032769;28;20431;-77
2023/05/08 07:03:16;;;;;;;19.23;14.45;;;15.70;99.90;;;-144.05;71.18;56935.91;5032965;28;20029;-76
2023/05/08 07:05:41;;;;;;;18.58;13.98;;;15.80;99.90;;;-144.05;70.95;56931.66;5015076;28;20496;-77
2023/05/08 07:08:07;;;;;;;17.13;12.82;;;15.80;99.90;;;-144.05;71.25;56933.78;5031128;28;20029;-77
2023/05/08 07:10:33;;;;;;;15.68;12.45;;;15.90;99.90;;;-144.05;72.00;56916.81;5032600;28;20377;-79
2023/05/08 07:12:59;;;;;;;16.05;12.35;;;16.10;99.90;;;-144.05;72.13;56946.53;5031609;28;20067;-77
2023/05/08 07:15:25;;;;;;;13.25;11.57;;;16.20;99.90;;;-144.05;71.94;56910.44;5015122;28;20088;-75
2023/05/08 07:17:51;;;;;;;15.45;12.15;;;16.40;99.90;;;-144.05;71.91;56914.69;5033437;28;20026;-78
2023/05/08 07:20:18;;;;;;;15.60;11.32;;;16.60;99.90;;;-144.05;70.79;56897.69;5033306;28;20132;-78
2023/05/08 07:22:44;;;;;;;18.33;11.90;;;16.80;99.90;;;-144.05;70.59;56901.94;5033540;28;20433;-77
2023/05/08 07:25:09;;;;;;;11.80;10.57;;;17.00;99.90;;;-144.05;69.54;56921.06;5032614;28;20481;-76
2023/05/08 07:27:35;;;;;;;11.85;10.45;;;17.20;99.90;;;-144.05;68.54;56933.78;5032567;28;20033;-76
2023/05/08 07:30:03;;;;;;;11.32;10.15;;;17.30;99.90;;;-144.05;68.28;56910.44;5030767;28;20037;-77
2023/05/08 07:32:30;;;;;;;12.30;9.63;;;17.40;99.90;;;-144.05;67.76;56914.69;5034752;28;20025;-77
2023/05/08 07:34:56;;;;;;;14.00;9.70;;;17.50;99.90;;;-144.05;66.98;56914.69;5050127;28;20089;-76
2023/05/08 07:37:22;;;;;;;10.68;8.63;;;17.70;99.90;;;-144.05;66.34;56914.69;5017468;28;20060;-79
2023/05/08 07:39:48;;;;;;;12.68;8.65;;;17.70;99.90;;;-144.05;66.06;56914.69;5032536;28;20029;-78
2023/05/08 07:42:16;;;;;;;12.00;8.90;;;17.60;99.90;;;-144.05;66.73;56940.16;5032680;28;20496;-78
2023/05/08 07:44:43;;;;;;;12.38;8.82;;;17.60;99.90;;;-144.05;67.84;56946.53;5034219;28;20037;-78
2023/05/08 07:47:08;;;;;;;8.88;7.50;;;17.60;99.90;;;-144.05;67.32;56931.66;5033824;28;20035;-77
2023/05/08 07:49:35;;;;;;;10.68;8.20;;;17.60;99.90;;;-144.05;66.54;56929.53;5031693;28;20068;-78
2023/05/08 07:52:01;;;;;;;7.75;6.95;;;17.60;99.90;;;-144.05;66.94;56908.31;5033373;28;20036;-77
2023/05/08 07:54:27;;;;;;;12.30;8.73;;;17.70;99.90;;;-144.05;67.17;56938.03;5033074;28;20104;-77
2023/05/08 07:56:53;;;;;;;10.82;7.90;;;17.70;99.90;;;-144.05;67.15;56944.41;5033223;28;20113;-77
2023/05/08 07:59:18;;;;;;;8.55;7.65;;;17.80;99.90;;;-144.05;67.19;56933.78;5032676;28;20440;-78
2023/05/08 08:01:46;;;;;;;7.65;6.88;;;17.90;99.90;;;-144.05;66.88;56948.66;5033489;28;20036;-77
2023/05/08 08:04:13;;;;;;;7.85;6.68;;;18.00;99.90;;;-144.05;66.71;56931.66;5033108;28;20049;-77
2023/05/08 08:06:40;;;;;;;9.55;7.45;;;18.00;99.90;;;-144.05;66.04;56944.41;5033497;28;20388;-77
2023/05/08 08:09:06;;;;;;;7.45;6.55;;;18.00;99.90;;;-144.05;65.78;56914.69;5032519;28;20039;-77
2023/05/08 08:11:32;;;;;;;8.60;6.95;;;18.00;99.90;;;-144.05;64.65;56933.78;5032820;28;20049;-78
2023/05/08 08:13:58;;;;;;;7.90;6.32;;;18.10;99.90;;;-144.05;65.06;56961.41;5033071;28;20401;-78
2023/05/08 08:16:24;;;;;;;8.38;6.00;;;18.10;99.90;;;-144.05;64.90;56952.91;5031841;28;20029;-77
2023/05/08 08:18:51;;;;;;;7.57;6.00;;;18.10;99.90;;;-144.05;64.58;56940.16;5032765;28;20094;-76
2023/05/08 08:21:18;;;;;;;6.25;5.65;;;18.20;99.90;;;-144.05;64.26;56955.03;5032902;28;20017;-77
2023/05/08 08:23:44;;;;;;;9.23;5.43;;;18.20;99.90;;;-144.05;64.31;56948.66;5014211;28;20030;-77
2023/05/08 08:26:09;;;;;;;7.20;5.30;;;18.30;99.90;;;-144.05;63.88;56957.16;5031540;28;20117;-76
2023/05/08 08:28:35;;;;;;;6.78;4.38;;;18.30;99.90;;;-144.05;63.16;56959.28;5031685;28;20044;-76
2023/05/08 08:31:01;;;;;;;6.07;4.88;;;18.20;99.90;;;-144.05;62.51;56935.91;5014096;28;20473;-76
2023/05/08 08:33:28;;;;;;;5.55;3.88;;;18.20;99.90;;;-144.05;61.71;56940.16;5031948;28;20029;-76
2023/05/08 08:35:54;;;;;;;3.85;3.42;;;18.20;99.90;;;-144.05;62.06;56959.28;5032018;28;20025;-77
2023/05/08 08:38:20;;;;;;;6.30;4.22;;;18.20;99.90;;;-144.05;61.89;56950.78;5031613;28;20481;-76
2023/05/08 08:40:46;;;;;;;6.53;4.45;;;18.30;99.90;;;-144.05;62.16;56940.16;5031878;28;20407;-78
2023/05/08 08:43:12;;;;;;;6.45;4.47;;;18.40;99.90;;;-144.05;62.04;56961.41;5031880;28;20108;-77
2023/05/08 08:45:38;;;;;;;7.43;5.55;;;18.50;99.90;;;-144.05;62.27;56942.28;5032032;28;20104;-77
2023/05/08 08:48:12;;;;;;;6.15;5.00;;;18.50;99.90;;;-144.05;62.29;56929.53;5030821;28;20030;-78
2023/05/08 08:50:46;;;;;;;5.15;4.65;;;18.50;99.90;;;-144.05;62.48;56935.91;5032194;28;20038;-77
2023/05/08 08:53:26;;;;;;;6.63;4.93;;;18.60;99.90;;;-144.05;62.23;56948.66;5033962;28;20045;-76
2023/05/08 08:55:57;;;;;;;8.68;5.70;;;18.70;99.90;;;-144.05;61.92;56925.28;5017475;28;20345;-76
2023/05/08 08:58:34;;;;;;;9.27;5.75;;;18.70;99.90;;;-144.05;62.15;56940.16;5034758;28;20380;-77
2023/05/08 09:01:02;;;;;;;10.18;7.07;;;18.80;99.90;;;-144.05;61.71;56950.78;5033596;28;20037;-77
2023/05/08 09:03:30;;;;;;;7.93;6.65;;;18.90;99.90;;;-144.05;61.34;56938.03;5034750;28;20029;-77
2023/05/08 09:06:02;;;;;;;9.25;7.15;;;19.00;99.90;;;-144.05;61.15;56957.16;5035526;28;20025;-79
2023/05/08 09:08:28;;;;;;;10.48;7.05;;;19.10;99.90;;;-144.05;61.08;56967.78;5035507;28;20052;-78
2023/05/08 09:10:55;;;;;;;8.88;6.57;;;19.20;99.90;;;-144.05;60.24;56929.53;5035289;28;20547;-76
2023/05/08 09:13:21;;;;;;;10.98;6.20;;;19.30;99.90;;;-144.05;60.81;56955.03;5034019;28;20041;-78
2023/05/08 09:15:49;;;;;;;10.00;6.80;;;19.40;99.90;;;-144.05;59.96;56944.41;5035495;28;20529;-77
2023/05/08 09:18:16;;;;;;;6.53;5.55;;;19.40;99.90;;;-144.05;60.65;56963.53;5036081;28;20026;-77
2023/05/08 09:20:43;;;;;;;8.13;5.88;;;19.40;99.90;;;-144.05;60.35;56957.16;5035957;28;20370;-77
2023/05/08 09:23:10;;;;;;;10.07;6.65;;;19.40;99.90;;;-144.05;60.62;56961.41;5036427;28;20040;-77
2023/05/08 09:25:47;;;;;;;9.25;6.05;;;19.40;99.90;;;-144.05;60.53;56967.78;5036216;28;20029;-78
2023/05/08 09:28:21;;;;;;;7.22;5.28;;;19.50;99.90;;;-144.05;59.94;56963.53;5035818;28;20425;-78
2023/05/08 09:30:58;;;;;;;7.60;5.30;;;19.50;99.90;;;-144.05;59.87;56974.16;5017806;28;20029;-77
2023/05/08 09:33:27;;;;;;;7.78;4.78;;;19.40;99.90;;;-144.05;60.25;56946.53;5018200;28;20025;-77
2023/05/08 09:35:57;;;;;;;5.30;4.72;;;19.50;99.90;;;-144.05;57.82;56940.16;5035183;28;20036;-76
2023/05/08 09:38:37;;;;;;;6.90;4.95;;;19.40;99.90;;;-144.05;58.99;56938.03;5035322;28;20112;-76
2023/05/08 09:41:14;;;;;;;5.68;4.28;;;19.40;99.90;;;-144.05;59.29;56978.41;5035433;28;20021;-77
2023/05/08 09:43:43;;;;;;;5.53;4.32;;;19.20;99.90;;;-144.05;59.59;56959.28;5017610;28;20055;-77
2023/05/08 09:46:18;;;;;;;6.05;4.20;;;19.20;99.90;;;-144.05;59.74;56955.03;5034834;28;20396;-78
2023/05/08 09:48:44;;;;;;;5.95;4.10;;;19.10;99.90;;;-144.05;59.63;56963.53;5035823;23;20395;-77
2023/05/08 09:51:10;;;;;;;5.93;3.65;;;19.10;99.90;;;-144.05;59.55;56955.03;4997285;28;20498;-79
2023/05/08 09:53:36;;;;;;;5.22;3.78;;;19.10;99.90;;;-144.05;59.84;56963.53;4996888;28;20057;-79
2023/05/08 09:56:05;;;;;;;4.47;3.78;;;19.10;99.90;;;-144.05;59.20;56963.53;4996984;28;20034;-78
2023/05/08 09:58:43;;;;;;;7.45;4.63;;;19.10;99.90;;;-144.05;59.20;56974.16;4973006;28;20037;-75
2023/05/08 10:01:34;;;;;;;6.75;4.88;;;19.00;99.90;;;-144.05;59.70;56952.91;4977509;28;20569;-78
2023/05/08 10:04:02;;;;;;;8.73;6.00;;;19.10;99.90;;;-144.05;61.18;56948.66;4979160;28;20031;-76
2023/05/08 10:06:29;;;;;;;9.23;5.68;;;19.00;99.90;;;-144.05;61.75;56946.53;4959716;28;20498;-76
2023/05/08 10:09:14;;;;;;;7.65;5.65;;;18.90;99.90;;;-144.05;61.94;56969.91;4975414;28;20479;-79
2023/05/08 10:11:51;;;;;;;7.70;5.50;;;18.70;99.90;;;-144.05;61.97;56942.28;4958170;28;20030;-80
2023/05/08 10:14:19;;;;;;;6.80;4.88;;;18.50;99.90;;;-144.05;63.02;56940.16;4976162;28;20049;-76